sensor_id;sensor_type;location;lat;lon;timestamp;P1;durP1;ratioP1;P2;durP2;ratioP2
60060;SDS011;45933;51.336;12.612;2023-08-21T00:00:33;4.38;;;3.17;;
60060;SDS011;45933;51.336;12.612;2023-08-21T00:02:58;6.25;;;3.38;;
60060;SDS011;45933;51.336;12.612;2023-08-21T00:05:24;5.65;;;3.20;;
60060;SDS011;45933;51.336;12.612;2023-08-21T00:07:49;4.57;;;3.40;;
60060;SDS011;45933;51.336;12.612;2023-08-21T00:10:16;5.32;;;3.28;;
60060;SDS011;45933;51.336;12.612;2023-08-21T00:12:41;5.00;;;3.40;;
60060;SDS011;45933;51.336;12.612;2023-08-21T00:15:07;4.47;;;3.28;;
60060;SDS011;45933;51.336;12.612;2023-08-21T00:17:34;3.90;;;3.47;;
60060;SDS011;45933;51.336;12.612;2023-08-21T00:20:00;4.43;;;3.45;;
60060;SDS011;45933;51.336;12.612;2023-08-21T00:22:25;5.63;;;3.22;;
60060;SDS011;45933;51.336;12.612;2023-08-21T00:24:50;4.40;;;3.50;;
60060;SDS011;45933;51.336;12.612;2023-08-21T00:27:16;6.22;;;2.90;;
60060;SDS011;45933;51.336;12.612;2023-08-21T00:29:41;4.28;;;3.10;;
60060;SDS011;45933;51.336;12.612;2023-08-21T00:32:06;4.18;;;3.03;;
60060;SDS011;45933;51.336;12.612;2023-08-21T00:34:32;4.22;;;3.40;;
60060;SDS011;45933;51.336;12.612;2023-08-21T00:36:57;5.63;;;3.10;;
60060;SDS011;45933;51.336;12.612;2023-08-21T00:39:22;3.40;;;3.03;;
60060;SDS011;45933;51.336;12.612;2023-08-21T00:41:48;5.68;;;3.05;;
60060;SDS011;45933;51.336;12.612;2023-08-21T00:44:13;5.78;;;3.42;;
60060;SDS011;45933;51.336;12.612;2023-08-21T00:46:38;5.97;;;3.38;;
60060;SDS011;45933;51.336;12.612;2023-08-21T00:49:04;4.70;;;3.08;;
60060;SDS011;45933;51.336;12.612;2023-08-21T00:51:29;5.53;;;3.17;;
60060;SDS011;45933;51.336;12.612;2023-08-21T00:53:55;5.13;;;3.55;;
60060;SDS011;45933;51.336;12.612;2023-08-21T00:56:20;4.43;;;2.85;;
60060;SDS011;45933;51.336;12.612;2023-08-21T00:58:46;4.35;;;3.00;;
60060;SDS011;45933;51.336;12.612;2023-08-21T01:01:12;5.13;;;3.22;;
60060;SDS011;45933;51.336;12.612;2023-08-21T01:03:40;6.72;;;2.88;;
60060;SDS011;45933;51.336;12.612;2023-08-21T01:06:06;4.78;;;2.83;;
60060;SDS011;45933;51.336;12.612;2023-08-21T01:08:42;4.68;;;2.95;;
60060;SDS011;45933;51.336;12.612;2023-08-21T01:11:29;5.13;;;3.25;;
60060;SDS011;45933;51.336;12.612;2023-08-21T01:14:13;4.15;;;2.88;;
60060;SDS011;45933;51.336;12.612;2023-08-21T01:16:46;6.70;;;3.10;;
60060;SDS011;45933;51.336;12.612;2023-08-21T01:19:21;5.15;;;3.28;;
60060;SDS011;45933;51.336;12.612;2023-08-21T01:21:55;3.92;;;3.03;;
60060;SDS011;45933;51.336;12.612;2023-08-21T01:24:21;5.05;;;3.58;;
60060;SDS011;45933;51.336;12.612;2023-08-21T01:26:46;4.03;;;3.28;;
60060;SDS011;45933;51.336;12.612;2023-08-21T01:29:11;5.13;;;3.15;;
60060;SDS011;45933;51.336;12.612;2023-08-21T01:31:37;5.95;;;3.50;;
60060;SDS011;45933;51.336;12.612;2023-08-21T01:34:08;5.32;;;3.00;;
60060;SDS011;45933;51.336;12.612;2023-08-21T01:36:36;7.18;;;3.28;;
60060;SDS011;45933;51.336;12.612;2023-08-21T01:39:02;4.93;;;3.05;;
60060;SDS011;45933;51.336;12.612;2023-08-21T01:41:28;3.50;;;3.00;;
60060;SDS011;45933;51.336;12.612;2023-08-21T01:43:54;4.80;;;3.40;;
60060;SDS011;45933;51.336;12.612;2023-08-21T01:46:19;4.80;;;3.72;;
60060;SDS011;45933;51.336;12.612;2023-08-21T01:48:45;5.57;;;3.22;;
60060;SDS011;45933;51.336;12.612;2023-08-21T01:51:10;5.40;;;3.67;;
60060;SDS011;45933;51.336;12.612;2023-08-21T01:53:35;4.60;;;3.10;;
60060;SDS011;45933;51.336;12.612;2023-08-21T01:56:01;5.68;;;3.15;;
60060;SDS011;45933;51.336;12.612;2023-08-21T01:58:26;3.40;;;3.17;;
60060;SDS011;45933;51.336;12.612;2023-08-21T02:00:51;4.57;;;3.50;;
60060;SDS011;45933;51.336;12.612;2023-08-21T02:03:17;4.55;;;3.40;;
60060;SDS011;45933;51.336;12.612;2023-08-21T02:05:42;4.85;;;3.60;;
60060;SDS011;45933;51.336;12.612;2023-08-21T02:08:09;5.10;;;3.75;;
60060;SDS011;45933;51.336;12.612;2023-08-21T02:10:36;3.85;;;3.45;;
60060;SDS011;45933;51.336;12.612;2023-08-21T02:13:01;4.32;;;3.40;;
60060;SDS011;45933;51.336;12.612;2023-08-21T02:15:27;8.40;;;3.85;;
60060;SDS011;45933;51.336;12.612;2023-08-21T02:17:52;7.78;;;3.63;;
60060;SDS011;45933;51.336;12.612;2023-08-21T02:20:17;4.90;;;3.53;;
60060;SDS011;45933;51.336;12.612;2023-08-21T02:22:43;6.95;;;3.53;;
60060;SDS011;45933;51.336;12.612;2023-08-21T02:25:08;5.57;;;3.95;;
60060;SDS011;45933;51.336;12.612;2023-08-21T02:27:33;5.85;;;3.63;;
60060;SDS011;45933;51.336;12.612;2023-08-21T02:29:59;5.38;;;3.80;;
60060;SDS011;45933;51.336;12.612;2023-08-21T02:32:24;5.07;;;3.70;;
60060;SDS011;45933;51.336;12.612;2023-08-21T02:34:49;4.72;;;3.78;;
60060;SDS011;45933;51.336;12.612;2023-08-21T02:37:15;3.90;;;3.35;;
60060;SDS011;45933;51.336;12.612;2023-08-21T02:39:40;4.60;;;3.35;;
60060;SDS011;45933;51.336;12.612;2023-08-21T02:42:05;3.85;;;3.47;;
60060;SDS011;45933;51.336;12.612;2023-08-21T02:44:31;4.28;;;3.47;;
60060;SDS011;45933;51.336;12.612;2023-08-21T02:46:56;4.00;;;3.60;;
60060;SDS011;45933;51.336;12.612;2023-08-21T02:49:21;4.50;;;3.15;;
60060;SDS011;45933;51.336;12.612;2023-08-21T02:51:47;4.88;;;3.90;;
60060;SDS011;45933;51.336;12.612;2023-08-21T02:54:12;4.10;;;3.53;;
60060;SDS011;45933;51.336;12.612;2023-08-21T02:56:37;4.93;;;3.40;;
60060;SDS011;45933;51.336;12.612;2023-08-21T02:59:03;4.18;;;3.50;;
60060;SDS011;45933;51.336;12.612;2023-08-21T03:01:28;4.35;;;3.83;;
60060;SDS011;45933;51.336;12.612;2023-08-21T03:03:53;4.88;;;3.70;;
60060;SDS011;45933;51.336;12.612;2023-08-21T03:06:18;6.13;;;4.05;;
60060;SDS011;45933;51.336;12.612;2023-08-21T03:08:44;5.10;;;3.22;;
60060;SDS011;45933;51.336;12.612;2023-08-21T03:11:09;5.57;;;3.50;;
60060;SDS011;45933;51.336;12.612;2023-08-21T03:13:35;5.07;;;3.60;;
60060;SDS011;45933;51.336;12.612;2023-08-21T03:16:00;5.03;;;4.05;;
60060;SDS011;45933;51.336;12.612;2023-08-21T03:18:30;5.53;;;4.03;;
60060;SDS011;45933;51.336;12.612;2023-08-21T03:20:56;7.30;;;3.80;;
60060;SDS011;45933;51.336;12.612;2023-08-21T03:23:21;4.60;;;3.55;;
60060;SDS011;45933;51.336;12.612;2023-08-21T03:25:47;4.68;;;3.88;;
60060;SDS011;45933;51.336;12.612;2023-08-21T03:28:12;5.63;;;4.00;;
60060;SDS011;45933;51.336;12.612;2023-08-21T03:30:39;4.60;;;3.45;;
60060;SDS011;45933;51.336;12.612;2023-08-21T03:33:04;7.57;;;5.70;;
60060;SDS011;45933;51.336;12.612;2023-08-21T03:35:30;6.70;;;4.13;;
60060;SDS011;45933;51.336;12.612;2023-08-21T03:37:56;8.07;;;4.30;;
60060;SDS011;45933;51.336;12.612;2023-08-21T03:40:21;6.35;;;3.67;;
60060;SDS011;45933;51.336;12.612;2023-08-21T03:42:46;6.32;;;4.10;;
60060;SDS011;45933;51.336;12.612;2023-08-21T03:45:12;8.07;;;4.22;;
60060;SDS011;45933;51.336;12.612;2023-08-21T03:47:37;6.00;;;3.78;;
60060;SDS011;45933;51.336;12.612;2023-08-21T03:50:03;5.47;;;3.78;;
60060;SDS011;45933;51.336;12.612;2023-08-21T03:52:28;4.65;;;4.15;;
60060;SDS011;45933;51.336;12.612;2023-08-21T03:54:53;4.65;;;4.15;;
60060;SDS011;45933;51.336;12.612;2023-08-21T03:57:19;7.93;;;4.40;;
60060;SDS011;45933;51.336;12.612;2023-08-21T03:59:44;4.60;;;3.72;;
60060;SDS011;45933;51.336;12.612;2023-08-21T04:02:09;5.22;;;3.90;;
60060;SDS011;45933;51.336;12.612;2023-08-21T04:04:35;5.30;;;4.32;;
60060;SDS011;45933;51.336;12.612;2023-08-21T04:07:00;5.93;;;3.80;;
60060;SDS011;45933;51.336;12.612;2023-08-21T04:09:25;6.53;;;4.32;;
60060;SDS011;45933;51.336;12.612;2023-08-21T04:11:50;4.70;;;3.70;;
60060;SDS011;45933;51.336;12.612;2023-08-21T04:14:16;5.20;;;4.00;;
60060;SDS011;45933;51.336;12.612;2023-08-21T04:16:41;5.85;;;3.95;;
60060;SDS011;45933;51.336;12.612;2023-08-21T04:19:06;5.95;;;4.07;;
60060;SDS011;45933;51.336;12.612;2023-08-21T04:21:32;7.25;;;4.30;;
60060;SDS011;45933;51.336;12.612;2023-08-21T04:23:57;8.85;;;4.47;;
60060;SDS011;45933;51.336;12.612;2023-08-21T04:26:24;12.60;;;4.43;;
60060;SDS011;45933;51.336;12.612;2023-08-21T04:28:49;6.78;;;4.13;;
60060;SDS011;45933;51.336;12.612;2023-08-21T04:31:15;4.88;;;3.72;;
60060;SDS011;45933;51.336;12.612;2023-08-21T04:33:40;6.97;;;4.20;;
60060;SDS011;45933;51.336;12.612;2023-08-21T04:36:05;5.70;;;4.47;;
60060;SDS011;45933;51.336;12.612;2023-08-21T04:38:30;6.03;;;3.75;;
60060;SDS011;45933;51.336;12.612;2023-08-21T04:40:56;4.82;;;4.15;;
60060;SDS011;45933;51.336;12.612;2023-08-21T04:43:21;6.07;;;4.00;;
60060;SDS011;45933;51.336;12.612;2023-08-21T04:45:50;6.88;;;4.55;;
60060;SDS011;45933;51.336;12.612;2023-08-21T04:48:17;5.60;;;3.97;;
60060;SDS011;45933;51.336;12.612;2023-08-21T04:50:44;4.38;;;3.97;;
60060;SDS011;45933;51.336;12.612;2023-08-21T04:53:10;6.22;;;4.45;;
60060;SDS011;45933;51.336;12.612;2023-08-21T04:55:36;4.97;;;4.38;;
60060;SDS011;45933;51.336;12.612;2023-08-21T04:58:01;5.32;;;3.80;;
60060;SDS011;45933;51.336;12.612;2023-08-21T05:00:27;6.50;;;4.35;;
60060;SDS011;45933;51.336;12.612;2023-08-21T05:02:52;6.75;;;4.30;;
60060;SDS011;45933;51.336;12.612;2023-08-21T05:05:17;6.22;;;4.20;;
60060;SDS011;45933;51.336;12.612;2023-08-21T05:07:43;5.95;;;4.10;;
60060;SDS011;45933;51.336;12.612;2023-08-21T05:10:08;4.63;;;3.78;;
60060;SDS011;45933;51.336;12.612;2023-08-21T05:12:34;7.65;;;4.15;;
60060;SDS011;45933;51.336;12.612;2023-08-21T05:15:00;3.92;;;3.53;;
60060;SDS011;45933;51.336;12.612;2023-08-21T05:17:25;7.43;;;4.40;;
60060;SDS011;45933;51.336;12.612;2023-08-21T05:19:51;5.80;;;4.28;;
60060;SDS011;45933;51.336;12.612;2023-08-21T05:22:17;5.63;;;3.97;;
60060;SDS011;45933;51.336;12.612;2023-08-21T05:24:42;11.40;;;4.93;;
60060;SDS011;45933;51.336;12.612;2023-08-21T05:27:07;5.88;;;4.43;;
60060;SDS011;45933;51.336;12.612;2023-08-21T05:29:33;5.35;;;3.85;;
60060;SDS011;45933;51.336;12.612;2023-08-21T05:31:59;4.35;;;3.90;;
60060;SDS011;45933;51.336;12.612;2023-08-21T05:34:25;5.97;;;3.70;;
60060;SDS011;45933;51.336;12.612;2023-08-21T05:36:50;4.07;;;3.67;;
60060;SDS011;45933;51.336;12.612;2023-08-21T05:39:15;4.13;;;3.65;;
60060;SDS011;45933;51.336;12.612;2023-08-21T05:41:41;4.55;;;3.70;;
60060;SDS011;45933;51.336;12.612;2023-08-21T05:44:06;5.13;;;3.85;;
60060;SDS011;45933;51.336;12.612;2023-08-21T05:46:31;6.47;;;4.18;;
60060;SDS011;45933;51.336;12.612;2023-08-21T05:48:57;5.88;;;4.30;;
60060;SDS011;45933;51.336;12.612;2023-08-21T05:51:22;6.55;;;4.18;;
60060;SDS011;45933;51.336;12.612;2023-08-21T05:53:47;5.75;;;4.35;;
60060;SDS011;45933;51.336;12.612;2023-08-21T05:56:13;5.50;;;4.38;;
60060;SDS011;45933;51.336;12.612;2023-08-21T05:58:38;5.50;;;4.18;;
60060;SDS011;45933;51.336;12.612;2023-08-21T06:01:03;4.20;;;3.72;;
60060;SDS011;45933;51.336;12.612;2023-08-21T06:03:28;7.35;;;5.00;;
60060;SDS011;45933;51.336;12.612;2023-08-21T06:05:54;7.25;;;4.80;;
60060;SDS011;45933;51.336;12.612;2023-08-21T06:08:19;6.20;;;4.07;;
60060;SDS011;45933;51.336;12.612;2023-08-21T06:10:45;9.30;;;4.82;;
60060;SDS011;45933;51.336;12.612;2023-08-21T06:13:10;9.27;;;4.68;;
60060;SDS011;45933;51.336;12.612;2023-08-21T06:15:35;6.50;;;4.28;;
60060;SDS011;45933;51.336;12.612;2023-08-21T06:18:00;7.30;;;4.93;;
60060;SDS011;45933;51.336;12.612;2023-08-21T06:20:26;7.07;;;5.30;;
60060;SDS011;45933;51.336;12.612;2023-08-21T06:22:52;7.35;;;4.97;;
60060;SDS011;45933;51.336;12.612;2023-08-21T06:25:17;7.65;;;4.82;;
60060;SDS011;45933;51.336;12.612;2023-08-21T06:27:44;5.57;;;4.65;;
60060;SDS011;45933;51.336;12.612;2023-08-21T06:30:09;5.13;;;4.47;;
60060;SDS011;45933;51.336;12.612;2023-08-21T06:32:35;8.82;;;4.70;;
60060;SDS011;45933;51.336;12.612;2023-08-21T06:35:00;5.88;;;4.65;;
60060;SDS011;45933;51.336;12.612;2023-08-21T06:37:25;4.95;;;4.43;;
60060;SDS011;45933;51.336;12.612;2023-08-21T06:39:51;5.45;;;4.18;;
60060;SDS011;45933;51.336;12.612;2023-08-21T06:42:16;5.95;;;4.75;;
60060;SDS011;45933;51.336;12.612;2023-08-21T06:44:41;4.72;;;4.07;;
60060;SDS011;45933;51.336;12.612;2023-08-21T06:47:07;4.93;;;3.80;;
60060;SDS011;45933;51.336;12.612;2023-08-21T06:49:32;8.40;;;4.30;;
60060;SDS011;45933;51.336;12.612;2023-08-21T06:51:58;5.80;;;4.10;;
60060;SDS011;45933;51.336;12.612;2023-08-21T06:54:24;5.30;;;3.90;;
60060;SDS011;45933;51.336;12.612;2023-08-21T06:56:49;6.03;;;3.83;;
60060;SDS011;45933;51.336;12.612;2023-08-21T06:59:14;9.00;;;4.07;;
60060;SDS011;45933;51.336;12.612;2023-08-21T07:01:40;6.07;;;3.65;;
60060;SDS011;45933;51.336;12.612;2023-08-21T07:04:05;4.88;;;3.50;;
60060;SDS011;45933;51.336;12.612;2023-08-21T07:06:31;5.32;;;3.60;;
60060;SDS011;45933;51.336;12.612;2023-08-21T07:08:56;4.90;;;3.78;;
60060;SDS011;45933;51.336;12.612;2023-08-21T07:11:22;5.22;;;3.67;;
60060;SDS011;45933;51.336;12.612;2023-08-21T07:13:47;6.47;;;3.60;;
60060;SDS011;45933;51.336;12.612;2023-08-21T07:16:15;4.53;;;3.45;;
60060;SDS011;45933;51.336;12.612;2023-08-21T07:18:40;4.13;;;3.45;;
60060;SDS011;45933;51.336;12.612;2023-08-21T07:21:05;4.05;;;3.22;;
60060;SDS011;45933;51.336;12.612;2023-08-21T07:23:31;7.45;;;3.63;;
60060;SDS011;45933;51.336;12.612;2023-08-21T07:25:57;3.78;;;3.20;;
60060;SDS011;45933;51.336;12.612;2023-08-21T07:28:23;4.97;;;3.17;;
60060;SDS011;45933;51.336;12.612;2023-08-21T07:30:53;6.03;;;3.47;;
60060;SDS011;45933;51.336;12.612;2023-08-21T07:33:19;6.80;;;3.63;;
60060;SDS011;45933;51.336;12.612;2023-08-21T07:35:45;5.47;;;3.50;;
60060;SDS011;45933;51.336;12.612;2023-08-21T07:38:10;5.07;;;3.45;;
60060;SDS011;45933;51.336;12.612;2023-08-21T07:40:35;4.63;;;4.00;;
60060;SDS011;45933;51.336;12.612;2023-08-21T07:43:00;5.22;;;3.05;;
60060;SDS011;45933;51.336;12.612;2023-08-21T07:45:26;5.30;;;3.33;;
60060;SDS011;45933;51.336;12.612;2023-08-21T07:47:51;4.00;;;3.35;;
60060;SDS011;45933;51.336;12.612;2023-08-21T07:50:16;5.22;;;3.53;;
60060;SDS011;45933;51.336;12.612;2023-08-21T07:52:42;6.32;;;4.20;;
60060;SDS011;45933;51.336;12.612;2023-08-21T07:55:08;5.43;;;3.40;;
60060;SDS011;45933;51.336;12.612;2023-08-21T07:57:33;4.22;;;3.70;;
60060;SDS011;45933;51.336;12.612;2023-08-21T07:59:59;5.53;;;3.88;;
60060;SDS011;45933;51.336;12.612;2023-08-21T08:02:24;7.57;;;4.45;;
60060;SDS011;45933;51.336;12.612;2023-08-21T08:04:49;9.35;;;4.32;;
60060;SDS011;45933;51.336;12.612;2023-08-21T08:07:15;7.13;;;5.13;;
60060;SDS011;45933;51.336;12.612;2023-08-21T08:09:40;11.70;;;5.85;;
60060;SDS011;45933;51.336;12.612;2023-08-21T08:12:06;11.95;;;5.68;;
60060;SDS011;45933;51.336;12.612;2023-08-21T08:14:32;7.90;;;5.35;;
60060;SDS011;45933;51.336;12.612;2023-08-21T08:16:57;7.97;;;6.30;;
60060;SDS011;45933;51.336;12.612;2023-08-21T08:19:22;6.05;;;5.20;;
60060;SDS011;45933;51.336;12.612;2023-08-21T08:21:48;7.68;;;5.72;;
60060;SDS011;45933;51.336;12.612;2023-08-21T08:24:13;6.07;;;4.82;;
60060;SDS011;45933;51.336;12.612;2023-08-21T08:26:38;6.63;;;5.20;;
60060;SDS011;45933;51.336;12.612;2023-08-21T08:29:04;7.07;;;5.18;;
60060;SDS011;45933;51.336;12.612;2023-08-21T08:31:30;6.95;;;5.28;;
60060;SDS011;45933;51.336;12.612;2023-08-21T08:33:56;6.97;;;4.80;;
60060;SDS011;45933;51.336;12.612;2023-08-21T08:36:21;8.18;;;5.15;;
60060;SDS011;45933;51.336;12.612;2023-08-21T08:38:47;7.13;;;4.82;;
60060;SDS011;45933;51.336;12.612;2023-08-21T08:41:24;6.78;;;4.70;;
60060;SDS011;45933;51.336;12.612;2023-08-21T08:43:53;5.32;;;3.95;;
60060;SDS011;45933;51.336;12.612;2023-08-21T08:46:21;6.15;;;3.80;;
60060;SDS011;45933;51.336;12.612;2023-08-21T08:48:48;6.20;;;4.10;;
60060;SDS011;45933;51.336;12.612;2023-08-21T08:51:14;6.25;;;4.00;;
60060;SDS011;45933;51.336;12.612;2023-08-21T08:53:39;6.10;;;3.92;;
60060;SDS011;45933;51.336;12.612;2023-08-21T08:56:05;5.18;;;3.90;;
60060;SDS011;45933;51.336;12.612;2023-08-21T08:58:30;6.40;;;3.97;;
60060;SDS011;45933;51.336;12.612;2023-08-21T09:00:55;4.70;;;3.03;;
60060;SDS011;45933;51.336;12.612;2023-08-21T09:03:21;4.70;;;3.42;;
60060;SDS011;45933;51.336;12.612;2023-08-21T09:05:46;4.55;;;3.33;;
60060;SDS011;45933;51.336;12.612;2023-08-21T09:08:13;3.72;;;2.70;;
60060;SDS011;45933;51.336;12.612;2023-08-21T09:10:39;3.13;;;2.67;;
60060;SDS011;45933;51.336;12.612;2023-08-21T09:13:10;3.28;;;2.60;;
60060;SDS011;45933;51.336;12.612;2023-08-21T09:15:36;4.75;;;2.95;;
60060;SDS011;45933;51.336;12.612;2023-08-21T09:18:02;5.28;;;3.40;;
60060;SDS011;45933;51.336;12.612;2023-08-21T09:20:27;3.85;;;2.90;;
60060;SDS011;45933;51.336;12.612;2023-08-21T09:22:59;7.03;;;2.97;;
60060;SDS011;45933;51.336;12.612;2023-08-21T09:25:25;5.53;;;2.78;;
60060;SDS011;45933;51.336;12.612;2023-08-21T09:27:51;4.00;;;2.97;;
60060;SDS011;45933;51.336;12.612;2023-08-21T09:30:18;3.25;;;2.70;;
60060;SDS011;45933;51.336;12.612;2023-08-21T09:32:59;3.67;;;2.88;;
60060;SDS011;45933;51.336;12.612;2023-08-21T09:35:25;3.25;;;2.95;;
60060;SDS011;45933;51.336;12.612;2023-08-21T09:37:51;4.03;;;2.90;;
60060;SDS011;45933;51.336;12.612;2023-08-21T09:40:23;3.00;;;2.67;;
60060;SDS011;45933;51.336;12.612;2023-08-21T09:42:57;3.08;;;2.78;;
60060;SDS011;45933;51.336;12.612;2023-08-21T09:45:24;3.42;;;3.08;;
60060;SDS011;45933;51.336;12.612;2023-08-21T09:47:51;3.47;;;3.17;;
60060;SDS011;45933;51.336;12.612;2023-08-21T09:50:18;3.65;;;3.22;;
60060;SDS011;45933;51.336;12.612;2023-08-21T09:52:44;4.80;;;3.03;;
60060;SDS011;45933;51.336;12.612;2023-08-21T09:55:10;3.53;;;2.75;;
60060;SDS011;45933;51.336;12.612;2023-08-21T09:57:38;4.93;;;2.75;;
60060;SDS011;45933;51.336;12.612;2023-08-21T10:00:06;4.10;;;2.85;;
60060;SDS011;45933;51.336;12.612;2023-08-21T10:02:40;3.80;;;3.10;;
60060;SDS011;45933;51.336;12.612;2023-08-21T10:05:13;3.72;;;3.13;;
60060;SDS011;45933;51.336;12.612;2023-08-21T10:07:39;3.50;;;3.20;;
60060;SDS011;45933;51.336;12.612;2023-08-21T10:10:07;3.40;;;2.97;;
60060;SDS011;45933;51.336;12.612;2023-08-21T10:12:33;3.85;;;3.40;;
60060;SDS011;45933;51.336;12.612;2023-08-21T10:14:59;5.93;;;3.75;;
60060;SDS011;45933;51.336;12.612;2023-08-21T10:17:24;4.97;;;3.35;;
60060;SDS011;45933;51.336;12.612;2023-08-21T10:19:53;5.30;;;3.90;;
60060;SDS011;45933;51.336;12.612;2023-08-21T10:22:36;3.25;;;2.95;;
60060;SDS011;45933;51.336;12.612;2023-08-21T10:25:04;3.40;;;3.10;;
60060;SDS011;45933;51.336;12.612;2023-08-21T10:27:48;3.20;;;2.90;;
60060;SDS011;45933;51.336;12.612;2023-08-21T10:30:16;4.05;;;2.65;;
60060;SDS011;45933;51.336;12.612;2023-08-21T10:32:50;2.97;;;2.70;;
60060;SDS011;45933;51.336;12.612;2023-08-21T10:35:21;3.40;;;3.10;;
60060;SDS011;45933;51.336;12.612;2023-08-21T10:40:32;3.67;;;2.92;;
60060;SDS011;45933;51.336;12.612;2023-08-21T10:42:58;3.03;;;2.72;;
60060;SDS011;45933;51.336;12.612;2023-08-21T10:45:24;2.95;;;2.65;;
60060;SDS011;45933;51.336;12.612;2023-08-21T10:47:49;2.67;;;2.38;;
60060;SDS011;45933;51.336;12.612;2023-08-21T10:50:15;7.07;;;2.63;;
60060;SDS011;45933;51.336;12.612;2023-08-21T10:52:42;2.72;;;2.42;;
60060;SDS011;45933;51.336;12.612;2023-08-21T10:55:11;2.83;;;2.40;;
60060;SDS011;45933;51.336;12.612;2023-08-21T10:57:38;2.75;;;2.47;;
60060;SDS011;45933;51.336;12.612;2023-08-21T11:02:37;3.45;;;3.00;;
60060;SDS011;45933;51.336;12.612;2023-08-21T11:05:03;2.70;;;2.50;;
60060;SDS011;45933;51.336;12.612;2023-08-21T11:07:29;2.55;;;2.35;;
60060;SDS011;45933;51.336;12.612;2023-08-21T11:09:55;3.92;;;2.55;;
60060;SDS011;45933;51.336;12.612;2023-08-21T11:12:22;2.85;;;2.35;;
60060;SDS011;45933;51.336;12.612;2023-08-21T11:14:48;2.70;;;2.50;;
60060;SDS011;45933;51.336;12.612;2023-08-21T11:17:15;3.13;;;2.50;;
60060;SDS011;45933;51.336;12.612;2023-08-21T11:19:41;2.10;;;1.88;;
60060;SDS011;45933;51.336;12.612;2023-08-21T11:22:08;2.75;;;2.50;;
60060;SDS011;45933;51.336;12.612;2023-08-21T11:27:02;4.30;;;2.70;;
60060;SDS011;45933;51.336;12.612;2023-08-21T11:29:31;3.58;;;2.97;;
60060;SDS011;45933;51.336;12.612;2023-08-21T11:32:01;3.42;;;2.65;;
60060;SDS011;45933;51.336;12.612;2023-08-21T11:34:28;2.78;;;2.58;;
60060;SDS011;45933;51.336;12.612;2023-08-21T11:36:53;2.85;;;2.55;;
60060;SDS011;45933;51.336;12.612;2023-08-21T11:39:19;3.80;;;2.65;;
60060;SDS011;45933;51.336;12.612;2023-08-21T11:41:57;3.75;;;2.75;;
60060;SDS011;45933;51.336;12.612;2023-08-21T11:44:23;4.15;;;2.72;;
60060;SDS011;45933;51.336;12.612;2023-08-21T11:46:51;4.55;;;2.85;;
60060;SDS011;45933;51.336;12.612;2023-08-21T11:49:18;2.60;;;2.40;;
60060;SDS011;45933;51.336;12.612;2023-08-21T11:51:44;4.15;;;2.85;;
60060;SDS011;45933;51.336;12.612;2023-08-21T11:54:11;3.15;;;2.90;;
60060;SDS011;45933;51.336;12.612;2023-08-21T11:56:36;3.33;;;2.75;;
60060;SDS011;45933;51.336;12.612;2023-08-21T11:59:03;2.80;;;2.60;;
60060;SDS011;45933;51.336;12.612;2023-08-21T12:01:32;3.25;;;2.60;;
60060;SDS011;45933;51.336;12.612;2023-08-21T12:03:58;4.03;;;2.63;;
60060;SDS011;45933;51.336;12.612;2023-08-21T12:06:24;3.25;;;2.95;;
60060;SDS011;45933;51.336;12.612;2023-08-21T12:08:50;4.30;;;2.72;;
60060;SDS011;45933;51.336;12.612;2023-08-21T12:11:16;3.95;;;3.08;;
60060;SDS011;45933;51.336;12.612;2023-08-21T12:13:41;5.30;;;3.35;;
60060;SDS011;45933;51.336;12.612;2023-08-21T12:16:07;4.68;;;3.53;;
60060;SDS011;45933;51.336;12.612;2023-08-21T12:18:32;5.65;;;3.45;;
60060;SDS011;45933;51.336;12.612;2023-08-21T12:20:57;6.25;;;3.17;;
60060;SDS011;45933;51.336;12.612;2023-08-21T12:23:23;4.05;;;3.00;;
60060;SDS011;45933;51.336;12.612;2023-08-21T12:25:48;3.55;;;3.25;;
60060;SDS011;45933;51.336;12.612;2023-08-21T12:28:14;3.92;;;3.28;;
60060;SDS011;45933;51.336;12.612;2023-08-21T12:30:40;6.93;;;3.40;;
60060;SDS011;45933;51.336;12.612;2023-08-21T12:33:05;4.20;;;3.38;;
60060;SDS011;45933;51.336;12.612;2023-08-21T12:35:31;4.68;;;3.72;;
60060;SDS011;45933;51.336;12.612;2023-08-21T12:37:57;3.63;;;3.33;;
60060;SDS011;45933;51.336;12.612;2023-08-21T12:40:30;5.20;;;3.38;;
60060;SDS011;45933;51.336;12.612;2023-08-21T12:42:56;3.63;;;3.33;;
60060;SDS011;45933;51.336;12.612;2023-08-21T12:45:21;6.13;;;3.40;;
60060;SDS011;45933;51.336;12.612;2023-08-21T12:47:47;3.92;;;3.53;;
60060;SDS011;45933;51.336;12.612;2023-08-21T12:50:13;2.90;;;2.65;;
60060;SDS011;45933;51.336;12.612;2023-08-21T12:52:38;3.63;;;3.33;;
60060;SDS011;45933;51.336;12.612;2023-08-21T12:55:06;3.55;;;3.13;;
60060;SDS011;45933;51.336;12.612;2023-08-21T12:57:31;3.75;;;3.20;;
60060;SDS011;45933;51.336;12.612;2023-08-21T12:59:57;4.50;;;3.45;;
60060;SDS011;45933;51.336;12.612;2023-08-21T13:02:22;3.47;;;3.17;;
60060;SDS011;45933;51.336;12.612;2023-08-21T13:04:48;5.05;;;3.63;;
60060;SDS011;45933;51.336;12.612;2023-08-21T13:07:13;4.25;;;3.42;;
60060;SDS011;45933;51.336;12.612;2023-08-21T13:09:39;6.03;;;3.40;;
60060;SDS011;45933;51.336;12.612;2023-08-21T13:12:05;4.90;;;3.42;;
60060;SDS011;45933;51.336;12.612;2023-08-21T13:14:30;3.95;;;3.47;;
60060;SDS011;45933;51.336;12.612;2023-08-21T13:16:55;5.43;;;3.10;;
60060;SDS011;45933;51.336;12.612;2023-08-21T13:19:21;4.40;;;3.92;;
60060;SDS011;45933;51.336;12.612;2023-08-21T13:21:46;5.35;;;3.47;;
60060;SDS011;45933;51.336;12.612;2023-08-21T13:24:11;4.72;;;3.80;;
60060;SDS011;45933;51.336;12.612;2023-08-21T13:26:37;3.90;;;3.45;;
60060;SDS011;45933;51.336;12.612;2023-08-21T13:29:02;3.80;;;3.50;;
60060;SDS011;45933;51.336;12.612;2023-08-21T13:31:32;4.72;;;3.40;;
60060;SDS011;45933;51.336;12.612;2023-08-21T13:33:57;3.28;;;2.97;;
60060;SDS011;45933;51.336;12.612;2023-08-21T13:36:23;3.90;;;3.50;;
60060;SDS011;45933;51.336;12.612;2023-08-21T13:38:48;6.05;;;3.55;;
60060;SDS011;45933;51.336;12.612;2023-08-21T13:41:13;4.80;;;3.55;;
60060;SDS011;45933;51.336;12.612;2023-08-21T13:43:39;3.97;;;3.50;;
60060;SDS011;45933;51.336;12.612;2023-08-21T13:46:04;5.18;;;3.60;;
60060;SDS011;45933;51.336;12.612;2023-08-21T13:48:30;5.20;;;3.10;;
60060;SDS011;45933;51.336;12.612;2023-08-21T13:50:56;3.90;;;3.50;;
60060;SDS011;45933;51.336;12.612;2023-08-21T13:53:21;5.20;;;2.80;;
60060;SDS011;45933;51.336;12.612;2023-08-21T13:55:47;3.95;;;2.97;;
60060;SDS011;45933;51.336;12.612;2023-08-21T13:58:12;3.15;;;2.85;;
60060;SDS011;45933;51.336;12.612;2023-08-21T14:00:38;4.35;;;3.47;;
60060;SDS011;45933;51.336;12.612;2023-08-21T14:03:03;4.53;;;3.60;;
60060;SDS011;45933;51.336;12.612;2023-08-21T14:05:29;3.75;;;3.35;;
60060;SDS011;45933;51.336;12.612;2023-08-21T14:07:56;3.30;;;3.00;;
60060;SDS011;45933;51.336;12.612;2023-08-21T14:10:22;5.32;;;3.38;;
60060;SDS011;45933;51.336;12.612;2023-08-21T14:12:47;3.30;;;3.00;;
60060;SDS011;45933;51.336;12.612;2023-08-21T14:15:12;3.30;;;3.00;;
60060;SDS011;45933;51.336;12.612;2023-08-21T14:17:38;3.20;;;2.90;;
60060;SDS011;45933;51.336;12.612;2023-08-21T14:20:03;4.00;;;3.38;;
60060;SDS011;45933;51.336;12.612;2023-08-21T14:22:29;4.18;;;3.00;;
60060;SDS011;45933;51.336;12.612;2023-08-21T14:24:54;4.68;;;3.58;;
60060;SDS011;45933;51.336;12.612;2023-08-21T14:27:20;3.53;;;3.13;;
60060;SDS011;45933;51.336;12.612;2023-08-21T14:29:45;3.20;;;2.90;;
60060;SDS011;45933;51.336;12.612;2023-08-21T14:32:11;5.35;;;3.20;;
60060;SDS011;45933;51.336;12.612;2023-08-21T14:34:37;3.20;;;2.90;;